createdAt,value
2023-05-01T00:02:25.707Z,62.00
2023-05-01T00:04:53.755Z,62.01
2023-05-01T00:07:22.254Z,62.07
2023-05-01T00:09:50.351Z,62.22
2023-05-01T00:12:18.634Z,62.42
2023-05-01T00:14:46.584Z,63.02
2023-05-01T00:17:14.605Z,63.93
2023-05-01T00:19:42.740Z,64.69
2023-05-01T00:22:10.690Z,65.32
2023-05-01T00:24:38.738Z,65.78
2023-05-01T00:27:07.020Z,66.30
2023-05-01T00:29:34.911Z,66.58
2023-05-01T00:32:02.843Z,66.96
2023-05-01T00:34:31.508Z,67.23
2023-05-01T00:37:00.141Z,67.29
2023-05-01T00:39:28.073Z,67.67
2023-05-01T00:41:57.107Z,67.97
2023-05-01T00:44:25.124Z,67.93
2023-05-01T00:46:53.065Z,68.04
2023-05-01T00:49:22.077Z,68.14
2023-05-01T00:51:54.292Z,68.32
2023-05-01T00:54:24.445Z,68.47
2023-05-01T00:56:53.789Z,68.62
2023-05-01T00:59:22.256Z,68.91
2023-05-01T01:01:50.326Z,70.87
2023-05-01T01:04:18.300Z,70.01
2023-05-01T01:07:00.047Z,70.41
2023-05-01T01:09:37.324Z,70.70
2023-05-01T01:12:21.872Z,71.61
2023-05-01T01:14:59.617Z,72.21
2023-05-01T01:17:43.611Z,72.23
2023-05-01T01:20:20.220Z,75.28
2023-05-01T01:23:00.247Z,74.41
2023-05-01T01:25:56.045Z,75.10
2023-05-01T01:28:54.684Z,77.49
2023-05-01T01:31:55.750Z,78.20
2023-05-01T01:34:36.983Z,77.43
2023-05-01T01:37:25.795Z,77.83
2023-05-01T01:40:05.456Z,78.37
2023-05-01T01:42:39.962Z,78.72
2023-05-01T01:45:20.638Z,79.13
2023-05-01T01:47:49.511Z,80.07
2023-05-01T01:50:19.971Z,79.60
2023-05-01T01:52:51.139Z,80.26
2023-05-01T01:55:22.980Z,80.76
2023-05-01T01:57:52.884Z,80.95
2023-05-01T02:00:21.963Z,81.43
2023-05-01T02:02:50.734Z,81.79
2023-05-01T02:05:20.871Z,82.31
2023-05-01T02:07:51.423Z,82.56
2023-05-01T02:10:21.191Z,82.75
2023-05-01T02:12:52.375Z,82.93
2023-05-01T02:15:21.988Z,82.92
2023-05-01T02:17:52.794Z,83.16
2023-05-01T02:20:22.599Z,83.43
2023-05-01T02:22:54.542Z,83.62
2023-05-01T02:25:22.580Z,84.14
2023-05-01T02:28:08.863Z,84.11
2023-05-01T02:30:37.277Z,85.68
2023-05-01T02:33:05.581Z,84.59
2023-05-01T02:35:33.424Z,84.64
2023-05-01T02:38:01.357Z,84.90
2023-05-01T02:40:29.979Z,84.98
2023-05-01T02:42:59.142Z,85.20
2023-05-01T02:45:28.590Z,85.77
2023-05-01T02:48:01.163Z,85.73
2023-05-01T02:50:29.900Z,86.15
2023-05-01T02:52:58.105Z,86.40
2023-05-01T02:55:26.561Z,86.68
2023-05-01T02:57:54.500Z,86.97
2023-05-01T03:00:22.549Z,87.14
2023-05-01T03:02:50.550Z,87.48
2023-05-01T03:05:18.565Z,87.95
2023-05-01T03:07:46.880Z,89.27
2023-05-01T03:10:14.944Z,88.26
2023-05-01T03:12:43.231Z,88.72
2023-05-01T03:15:13.385Z,89.58
2023-05-01T03:17:41.325Z,88.90
2023-05-01T03:20:10.875Z,88.99
2023-05-01T03:22:38.865Z,89.19
2023-05-01T03:25:07.185Z,89.40
2023-05-01T03:27:35.133Z,89.54
2023-05-01T03:30:03.052Z,89.92
2023-05-01T03:32:31.152Z,89.97
2023-05-01T03:34:59.048Z,90.30
2023-05-01T03:37:27.412Z,90.62
2023-05-01T03:39:55.673Z,90.74
2023-05-01T03:42:23.834Z,90.86
2023-05-01T03:44:51.866Z,91.00
2023-05-01T03:47:20.692Z,91.34
2023-05-01T03:49:48.997Z,92.82
2023-05-01T03:52:17.795Z,92.71
2023-05-01T03:54:46.030Z,92.47
2023-05-01T03:57:13.920Z,93.13
2023-05-01T03:59:41.899Z,93.11
2023-05-01T04:02:09.932Z,93.21
2023-05-01T04:04:37.975Z,93.33
2023-05-01T04:07:06.927Z,93.17
2023-05-01T04:09:34.841Z,93.24
2023-05-01T04:12:04.019Z,93.87
2023-05-01T04:14:32.346Z,93.94
2023-05-01T04:17:00.749Z,94.23
2023-05-01T04:19:29.306Z,95.55
2023-05-01T04:21:57.183Z,94.77
2023-05-01T04:24:25.143Z,94.53
2023-05-01T04:26:53.124Z,94.54
2023-05-01T04:29:21.099Z,94.84
2023-05-01T04:31:49.090Z,94.87
2023-05-01T04:34:17.540Z,95.52
2023-05-01T04:36:45.710Z,96.02
2023-05-01T04:39:13.670Z,96.40
2023-05-01T04:41:41.760Z,96.11
2023-05-01T04:44:09.650Z,96.09
2023-05-01T04:46:37.669Z,96.20
2023-05-01T04:49:05.622Z,96.64
2023-05-01T04:51:33.594Z,96.78
2023-05-01T04:54:01.478Z,96.42
2023-05-01T04:56:29.417Z,96.57
2023-05-01T04:58:57.487Z,97.07
2023-05-01T05:01:25.605Z,97.42
2023-05-01T05:03:53.707Z,97.25
2023-05-01T05:06:22.324Z,97.77
2023-05-01T05:08:53.301Z,97.62
2023-05-01T05:11:21.336Z,97.67
2023-05-01T05:13:49.355Z,97.22
2023-05-01T05:16:17.756Z,98.14
2023-05-01T05:18:45.606Z,98.02
2023-05-01T05:21:13.465Z,98.38
2023-05-01T05:23:42.235Z,97.63
2023-05-01T05:26:10.137Z,97.58
2023-05-01T05:28:37.956Z,98.15
2023-05-01T05:31:05.956Z,98.28
2023-05-01T05:33:34.032Z,97.80
2023-05-01T05:36:01.997Z,97.72
2023-05-01T05:38:29.861Z,98.37
2023-05-01T05:40:57.732Z,98.55
2023-05-01T05:43:27.347Z,98.11
2023-05-01T05:46:00.303Z,97.69
2023-05-01T05:48:29.296Z,98.16
2023-05-01T05:50:57.972Z,97.85
2023-05-01T05:53:26.969Z,97.67
2023-05-01T05:55:54.882Z,97.22
2023-05-01T05:58:23.836Z,97.32
2023-05-01T06:00:52.022Z,97.23
2023-05-01T06:03:20.686Z,96.84
2023-05-01T06:05:49.664Z,96.88
2023-05-01T06:08:17.829Z,97.08
2023-05-01T06:10:45.836Z,96.66
2023-05-01T06:13:15.107Z,96.68
2023-05-01T06:15:43.285Z,96.82
2023-05-01T06:18:11.276Z,96.77
2023-05-01T06:20:40.196Z,96.62
2023-05-01T06:23:09.851Z,96.41
2023-05-01T06:25:38.745Z,96.11
2023-05-01T06:28:06.905Z,96.05
2023-05-01T06:30:34.796Z,96.46
2023-05-01T06:33:02.854Z,96.59
2023-05-01T06:35:30.790Z,96.22
2023-05-01T06:37:58.812Z,95.96
2023-05-01T06:40:26.723Z,95.94
2023-05-01T06:42:54.662Z,94.71
2023-05-01T06:45:22.777Z,94.71
2023-05-01T06:47:50.852Z,94.28
2023-05-01T06:50:19.004Z,94.30
2023-05-01T06:52:46.937Z,94.30
2023-05-01T06:55:14.891Z,94.18
2023-05-01T06:57:43.010Z,94.05
2023-05-01T07:00:12.217Z,93.99
2023-05-01T07:02:42.098Z,93.80
2023-05-01T07:05:10.497Z,93.72
2023-05-01T07:07:42.232Z,93.32
2023-05-01T07:10:15.427Z,93.38
2023-05-01T07:12:43.321Z,93.63
2023-05-01T07:15:11.511Z,93.25
2023-05-01T07:17:39.548Z,93.24
2023-05-01T07:20:08.174Z,93.17
2023-05-01T07:22:36.132Z,93.25
2023-05-01T07:25:04.851Z,92.82
2023-05-01T07:27:32.779Z,92.63
2023-05-01T07:30:02.024Z,92.61
2023-05-01T07:32:29.983Z,92.69
2023-05-01T07:34:57.961Z,92.79
2023-05-01T07:37:28.304Z,93.13
2023-05-01T07:39:56.323Z,92.46
2023-05-01T07:42:24.812Z,92.97
2023-05-01T07:44:53.133Z,92.99
2023-05-01T07:47:21.308Z,92.85
2023-05-01T07:49:49.306Z,93.06
2023-05-01T07:52:17.277Z,92.54
2023-05-01T07:54:45.227Z,92.74
2023-05-01T07:57:13.263Z,92.60
2023-05-01T07:59:41.262Z,92.36
2023-05-01T08:02:09.266Z,92.29
2023-05-01T08:04:37.320Z,91.96
2023-05-01T08:07:05.365Z,91.92
2023-05-01T08:09:33.343Z,91.81
2023-05-01T08:12:01.852Z,91.30
2023-05-01T08:14:29.898Z,91.33
2023-05-01T08:16:57.821Z,91.48
2023-05-01T08:19:26.028Z,91.50
2023-05-01T08:21:54.472Z,91.19
2023-05-01T08:24:22.485Z,91.39
2023-05-01T08:26:50.411Z,91.31
2023-05-01T08:29:18.323Z,91.05
2023-05-01T08:31:46.796Z,90.98
2023-05-01T08:34:14.807Z,91.16
2023-05-01T08:36:42.852Z,91.42
2023-05-01T08:39:10.809Z,91.72
2023-05-01T08:41:39.716Z,91.67
2023-05-01T08:44:10.468Z,92.01
2023-05-01T08:46:46.011Z,91.94
2023-05-01T08:49:17.464Z,92.34
2023-05-01T08:51:53.959Z,91.85
2023-05-01T08:54:22.554Z,91.98
2023-05-01T08:56:52.887Z,91.81
2023-05-01T08:59:22.851Z,91.86
2023-05-01T09:01:52.580Z,91.86
2023-05-01T09:04:21.052Z,92.00
2023-05-01T09:06:49.001Z,92.08
2023-05-01T09:09:17.655Z,91.94
2023-05-01T09:11:46.572Z,92.24
2023-05-01T09:14:14.474Z,92.18
2023-05-01T09:16:42.473Z,92.13
2023-05-01T09:19:11.111Z,92.36
2023-05-01T09:21:39.423Z,92.19
2023-05-01T09:24:07.430Z,92.54
2023-05-01T09:26:38.283Z,93.20
2023-05-01T09:29:07.471Z,92.47
2023-05-01T09:31:36.262Z,92.48
2023-05-01T09:34:06.289Z,92.62
2023-05-01T09:36:35.767Z,92.45
2023-05-01T09:39:04.163Z,92.26
2023-05-01T09:41:35.312Z,91.88
2023-05-01T09:44:03.434Z,92.16
2023-05-01T09:46:43.983Z,92.00
2023-05-01T09:49:11.920Z,92.11
2023-05-01T09:51:39.761Z,91.73
2023-05-01T09:54:19.929Z,91.86
2023-05-01T09:56:51.226Z,92.01
2023-05-01T09:59:21.450Z,92.00
2023-05-01T10:01:51.408Z,91.80
2023-05-01T10:04:19.553Z,91.99
2023-05-01T10:06:47.798Z,91.34
2023-05-01T10:09:28.573Z,91.10
2023-05-01T10:11:58.740Z,91.26
2023-05-01T10:14:28.184Z,90.03
2023-05-01T10:16:57.706Z,90.26
2023-05-01T10:19:25.849Z,89.99
2023-05-01T10:21:54.729Z,88.89
2023-05-01T10:24:22.789Z,89.36
2023-05-01T10:26:52.287Z,89.13
2023-05-01T10:29:24.731Z,88.77
2023-05-01T10:31:52.980Z,88.27
2023-05-01T10:34:26.245Z,87.80
2023-05-01T10:37:20.692Z,87.71
2023-05-01T10:39:48.600Z,87.97
2023-05-01T10:42:16.614Z,86.83
2023-05-01T10:44:45.272Z,86.34
2023-05-01T10:47:36.185Z,86.27
2023-05-01T10:50:11.958Z,85.22
2023-05-01T10:53:13.935Z,85.29
2023-05-01T10:55:49.243Z,85.42
2023-05-01T10:58:38.895Z,85.78
2023-05-01T11:01:30.352Z,84.07
2023-05-01T11:04:00.206Z,84.69
2023-05-01T11:06:28.474Z,84.79
2023-05-01T11:08:57.030Z,84.64
2023-05-01T11:11:28.205Z,84.51
2023-05-01T11:14:09.641Z,84.17
2023-05-01T11:16:40.828Z,84.83
2023-05-01T11:19:22.589Z,84.07
2023-05-01T11:21:51.929Z,82.93
2023-05-01T11:24:21.184Z,82.60
2023-05-01T11:26:50.032Z,82.61
2023-05-01T11:29:18.683Z,81.90
2023-05-01T11:31:49.812Z,82.52
2023-05-01T11:34:18.471Z,82.96
2023-05-01T11:36:51.283Z,83.20
2023-05-01T11:39:20.193Z,83.16
2023-05-01T11:41:48.636Z,83.71
2023-05-01T11:44:18.697Z,84.08
2023-05-01T11:46:46.867Z,84.48
2023-05-01T11:49:14.706Z,84.31
2023-05-01T11:51:42.635Z,85.53
2023-05-01T11:54:13.774Z,85.49
2023-05-01T11:56:44.069Z,85.62
2023-05-01T11:59:18.378Z,87.02
2023-05-01T12:01:48.015Z,86.38
2023-05-01T12:04:29.738Z,86.52
2023-05-01T12:06:59.822Z,87.34
2023-05-01T12:09:28.805Z,86.63
2023-05-01T12:11:57.214Z,86.53
2023-05-01T12:14:25.748Z,86.67
2023-05-01T12:16:53.815Z,86.53
2023-05-01T12:19:24.086Z,86.74
2023-05-01T12:22:07.496Z,87.11
2023-05-01T12:24:35.629Z,87.04
2023-05-01T12:27:04.897Z,87.09
2023-05-01T12:29:43.175Z,86.81
2023-05-01T12:32:11.743Z,86.81
2023-05-01T12:34:39.864Z,86.44
2023-05-01T12:37:07.895Z,85.73
2023-05-01T12:39:46.251Z,82.99
2023-05-01T12:42:15.948Z,82.86
2023-05-01T12:44:45.475Z,83.42
2023-05-01T12:47:14.310Z,83.07
2023-05-01T12:49:42.912Z,83.02
2023-05-01T12:52:11.017Z,83.04
2023-05-01T12:54:41.317Z,83.06
2023-05-01T12:57:13.272Z,82.80
2023-05-01T12:59:42.981Z,82.54
2023-05-01T13:02:18.263Z,82.36
2023-05-01T13:04:48.419Z,82.47
2023-05-01T13:07:20.683Z,85.19
2023-05-01T13:10:00.151Z,92.88
2023-05-01T13:12:29.746Z,96.58
2023-05-01T13:14:58.434Z,97.18
2023-05-01T13:17:27.756Z,98.45
2023-05-01T13:19:57.207Z,99.38
2023-05-01T13:22:36.262Z,100.00
2023-05-01T13:25:24.753Z,100.00
2023-05-01T13:27:53.923Z,100.00
2023-05-01T13:30:31.920Z,100.00
2023-05-01T13:32:59.958Z,100.00
2023-05-01T13:35:28.739Z,100.00
2023-05-01T13:37:56.810Z,100.00
2023-05-01T13:40:27.390Z,99.98
2023-05-01T13:42:55.404Z,99.85
2023-05-01T13:45:23.568Z,100.00
2023-05-01T13:47:53.193Z,100.00
2023-05-01T13:50:21.605Z,100.00
2023-05-01T13:52:49.776Z,100.00
2023-05-01T13:55:19.034Z,100.00
2023-05-01T13:57:46.963Z,100.00
2023-05-01T14:00:19.408Z,100.00
2023-05-01T14:02:50.117Z,100.00
2023-05-01T14:05:24.661Z,100.00
2023-05-01T14:07:56.837Z,100.00
2023-05-01T14:10:27.679Z,100.00
2023-05-01T14:13:02.311Z,100.00
2023-05-01T14:15:30.915Z,100.00
2023-05-01T14:18:00.204Z,100.00
2023-05-01T14:20:28.460Z,100.00
2023-05-01T14:22:56.417Z,100.00
2023-05-01T14:25:32.626Z,100.00
2023-05-01T14:28:02.583Z,100.00
2023-05-01T14:30:35.829Z,100.00
2023-05-01T14:33:07.743Z,100.00
2023-05-01T14:35:36.771Z,99.97
2023-05-01T14:38:39.928Z,99.84
2023-05-01T14:41:10.007Z,99.14
2023-05-01T14:43:42.796Z,99.44
2023-05-01T14:46:13.963Z,99.16
2023-05-01T14:48:43.183Z,98.99
2023-05-01T14:51:14.172Z,98.75
2023-05-01T14:53:45.198Z,97.67
2023-05-01T14:56:13.902Z,96.72
2023-05-01T14:58:42.908Z,95.94
2023-05-01T15:01:11.066Z,95.79
2023-05-01T15:03:42.040Z,95.14
2023-05-01T15:06:10.296Z,94.72
2023-05-01T15:08:39.472Z,94.54
2023-05-01T15:11:07.530Z,94.19
2023-05-01T15:13:35.432Z,93.07
2023-05-01T15:16:03.989Z,92.19
2023-05-01T15:18:32.004Z,91.41
2023-05-01T15:21:00.068Z,89.85
2023-05-01T15:23:29.160Z,84.46
2023-05-01T15:25:57.039Z,82.60
2023-05-01T15:28:26.420Z,82.46
2023-05-01T15:30:54.573Z,84.83
2023-05-01T15:33:23.709Z,85.25
2023-05-01T15:35:54.029Z,85.41
2023-05-01T15:38:22.961Z,86.15
2023-05-01T15:40:51.330Z,87.23
2023-05-01T15:43:19.226Z,87.92
2023-05-01T15:45:47.269Z,89.23
2023-05-01T15:48:15.381Z,89.78
2023-05-01T15:50:43.371Z,89.72
2023-05-01T15:53:11.336Z,90.15
2023-05-01T15:55:39.481Z,90.56
2023-05-01T15:58:07.511Z,91.35
2023-05-01T16:00:37.277Z,92.64
2023-05-01T16:03:05.780Z,93.10
2023-05-01T16:05:33.918Z,93.96
2023-05-01T16:08:02.882Z,94.82
2023-05-01T16:10:30.934Z,94.93
2023-05-01T16:12:59.186Z,95.07
2023-05-01T16:15:27.055Z,95.28
2023-05-01T16:17:56.335Z,95.42
2023-05-01T16:20:25.047Z,95.56
2023-05-01T16:22:53.315Z,95.61
2023-05-01T16:25:21.365Z,95.98
2023-05-01T16:27:49.368Z,96.31
2023-05-01T16:30:17.364Z,96.56
2023-05-01T16:32:46.216Z,96.69
2023-05-01T16:35:19.151Z,96.65
2023-05-01T16:37:47.234Z,96.92
2023-05-01T16:40:19.415Z,96.92
2023-05-01T16:42:53.127Z,97.03
2023-05-01T16:45:21.748Z,96.93
2023-05-01T16:47:49.816Z,96.80
2023-05-01T16:50:18.336Z,96.83
2023-05-01T16:52:46.322Z,96.75
2023-05-01T16:55:14.458Z,96.89
2023-05-01T16:57:44.261Z,97.13
2023-05-01T17:00:13.047Z,97.70
2023-05-01T17:02:41.049Z,97.88
2023-05-01T17:05:09.592Z,98.83
2023-05-01T17:07:37.605Z,99.44
2023-05-01T17:10:05.969Z,99.93
2023-05-01T17:12:33.906Z,100.00
2023-05-01T17:15:01.919Z,100.00
2023-05-01T17:17:29.821Z,100.00
2023-05-01T17:19:58.049Z,100.00
2023-05-01T17:22:27.862Z,100.00
2023-05-01T17:24:57.615Z,100.00
2023-05-01T17:27:25.619Z,100.00
2023-05-01T17:29:53.542Z,100.00
2023-05-01T17:32:35.872Z,100.00
2023-05-01T17:35:05.946Z,100.00
2023-05-01T17:37:34.420Z,100.00
2023-05-01T17:40:03.076Z,100.00
2023-05-01T17:42:31.200Z,100.00
2023-05-01T17:44:59.066Z,100.00
2023-05-01T17:47:27.424Z,100.00
2023-05-01T17:49:55.636Z,100.00
2023-05-01T17:52:23.507Z,100.00
2023-05-01T17:54:51.562Z,100.00
2023-05-01T17:57:19.508Z,100.00
2023-05-01T17:59:47.996Z,100.00
2023-05-01T18:02:15.995Z,100.00
2023-05-01T18:04:43.973Z,100.00
2023-05-01T18:07:11.984Z,100.00
2023-05-01T18:09:39.903Z,100.00
2023-05-01T18:12:07.840Z,100.00
2023-05-01T18:14:35.814Z,100.00
2023-05-01T18:17:03.951Z,100.00
2023-05-01T18:19:32.085Z,100.00
2023-05-01T18:22:00.706Z,100.00
2023-05-01T18:24:28.630Z,100.00
2023-05-01T18:26:56.533Z,100.00
2023-05-01T18:29:24.566Z,100.00
2023-05-01T18:31:52.476Z,100.00
2023-05-01T18:34:20.846Z,100.00
2023-05-01T18:36:49.890Z,100.00
2023-05-01T18:39:17.788Z,100.00
2023-05-01T18:41:45.788Z,100.00
2023-05-01T18:44:13.720Z,100.00
2023-05-01T18:46:42.624Z,100.00
2023-05-01T18:49:10.529Z,100.00
2023-05-01T18:51:38.653Z,100.00
2023-05-01T18:54:08.420Z,100.00
2023-05-01T18:56:36.412Z,100.00
2023-05-01T18:59:04.371Z,100.00
2023-05-01T19:01:32.745Z,100.00
2023-05-01T19:04:01.319Z,100.00
2023-05-01T19:06:29.335Z,100.00
2023-05-01T19:08:57.408Z,100.00
2023-05-01T19:11:27.570Z,100.00
2023-05-01T19:13:55.460Z,100.00
2023-05-01T19:16:23.582Z,100.00
2023-05-01T19:18:51.423Z,100.00
2023-05-01T19:21:19.751Z,100.00
2023-05-01T19:23:48.704Z,100.00
2023-05-01T19:26:16.799Z,100.00
2023-05-01T19:28:44.754Z,100.00
2023-05-01T19:31:14.445Z,100.00
2023-05-01T19:33:42.713Z,100.00
2023-05-01T19:36:10.664Z,100.00
2023-05-01T19:38:38.613Z,100.00
2023-05-01T19:41:06.672Z,100.00
2023-05-01T19:43:34.564Z,100.00
2023-05-01T19:46:02.497Z,100.00
2023-05-01T19:48:30.649Z,100.00
2023-05-01T19:50:58.609Z,100.00
2023-05-01T19:53:26.643Z,100.00
2023-05-01T19:55:54.864Z,100.00
2023-05-01T19:58:23.079Z,100.00
2023-05-01T20:00:51.180Z,100.00
2023-05-01T20:03:19.302Z,100.00
2023-05-01T20:05:47.213Z,100.00
2023-05-01T20:08:15.150Z,100.00
2023-05-01T20:10:43.100Z,100.00
2023-05-01T20:13:11.985Z,100.00
2023-05-01T20:15:41.025Z,100.00
2023-05-01T20:18:09.466Z,100.00
2023-05-01T20:20:37.404Z,100.00
2023-05-01T20:23:15.798Z,100.00
2023-05-01T20:25:44.098Z,100.00
2023-05-01T20:28:14.272Z,100.00
2023-05-01T20:30:44.938Z,100.00
2023-05-01T20:33:13.466Z,100.00
2023-05-01T20:35:41.670Z,100.00
2023-05-01T20:38:09.695Z,100.00
2023-05-01T20:40:41.348Z,100.00
2023-05-01T20:43:09.341Z,100.00
2023-05-01T20:45:37.376Z,100.00
2023-05-01T20:48:05.522Z,100.00
2023-05-01T20:50:33.611Z,100.00
2023-05-01T20:53:01.643Z,100.00
2023-05-01T20:55:29.796Z,100.00
2023-05-01T20:57:57.797Z,100.00
2023-05-01T21:00:25.789Z,100.00
2023-05-01T21:02:54.173Z,100.00
2023-05-01T21:05:22.278Z,100.00
2023-05-01T21:07:50.225Z,100.00
2023-05-01T21:10:18.180Z,100.00
2023-05-01T21:12:46.167Z,100.00
2023-05-01T21:15:14.121Z,100.00
2023-05-01T21:17:42.395Z,100.00
2023-05-01T21:20:17.887Z,100.00
2023-05-01T21:22:46.989Z,100.00
2023-05-01T21:25:17.638Z,100.00
2023-05-01T21:27:45.460Z,100.00
2023-05-01T21:30:17.284Z,100.00
2023-05-01T21:32:45.444Z,99.43
2023-05-01T21:35:17.314Z,99.84
2023-05-01T21:37:46.622Z,99.73
2023-05-01T21:40:15.776Z,97.17
2023-05-01T21:42:43.812Z,98.46
2023-05-01T21:45:14.426Z,98.33
2023-05-01T21:47:47.653Z,99.08
2023-05-01T21:50:17.752Z,99.34
2023-05-01T21:52:47.591Z,99.65
2023-05-01T21:55:27.003Z,99.92
2023-05-01T21:57:55.022Z,100.00
2023-05-01T22:00:23.233Z,100.00
2023-05-01T22:02:52.326Z,100.00
2023-05-01T22:05:23.604Z,100.00
2023-05-01T22:07:55.356Z,100.00
2023-05-01T22:10:23.330Z,100.00
2023-05-01T22:12:51.591Z,100.00
2023-05-01T22:15:19.735Z,100.00
2023-05-01T22:17:47.674Z,100.00
2023-05-01T22:20:15.737Z,100.00
2023-05-01T22:22:44.419Z,100.00
2023-05-01T22:25:13.486Z,100.00
2023-05-01T22:27:42.115Z,100.00
2023-05-01T22:30:10.460Z,100.00
2023-05-01T22:32:38.436Z,100.00
2023-05-01T22:35:06.953Z,100.00
2023-05-01T22:37:34.824Z,100.00
2023-05-01T22:40:03.001Z,100.00
2023-05-01T22:42:31.118Z,100.00
2023-05-01T22:44:58.963Z,100.00
2023-05-01T22:47:26.980Z,100.00
2023-05-01T22:49:54.850Z,100.00
2023-05-01T22:52:22.716Z,100.00
2023-05-01T22:54:53.242Z,100.00
2023-05-01T22:57:21.119Z,100.00
2023-05-01T22:59:49.842Z,100.00
2023-05-01T23:02:18.959Z,100.00
2023-05-01T23:04:47.410Z,100.00
2023-05-01T23:07:15.535Z,100.00
2023-05-01T23:09:43.833Z,100.00
2023-05-01T23:12:29.628Z,100.00
2023-05-01T23:14:57.544Z,100.00
2023-05-01T23:17:28.467Z,100.00
2023-05-01T23:19:59.616Z,100.00
2023-05-01T23:22:27.777Z,100.00
2023-05-01T23:24:55.685Z,100.00
2023-05-01T23:27:23.925Z,100.00
2023-05-01T23:29:58.866Z,100.00
2023-05-01T23:32:32.119Z,100.00
2023-05-01T23:35:15.034Z,100.00
2023-05-01T23:37:43.285Z,100.00
2023-05-01T23:40:11.501Z,100.00
2023-05-01T23:42:40.730Z,100.00
2023-05-01T23:45:09.576Z,100.00
2023-05-01T23:47:38.682Z,100.00
2023-05-01T23:50:07.691Z,100.00
2023-05-01T23:52:35.708Z,100.00
2023-05-01T23:55:03.739Z,100.00
2023-05-01T23:57:31.628Z,100.00
2023-05-01T23:59:59.563Z,100.00
